sensor_id;sensor_type;location;lat;lon;timestamp;P1;durP1;ratioP1;P2;durP2;ratioP2
8698;SDS011;4386;51.236;6.742;2023-05-07T00:00:23;2.50;;;2.30;;
8698;SDS011;4386;51.236;6.742;2023-05-07T00:01:33;2.43;;;2.23;;
8698;SDS011;4386;51.236;6.742;2023-05-07T00:02:56;3.43;;;2.37;;
8698;SDS011;4386;51.236;6.742;2023-05-07T00:03:59;3.03;;;2.70;;
8698;SDS011;4386;51.236;6.742;2023-05-07T00:05:03;2.70;;;2.27;;
8698;SDS011;4386;51.236;6.742;2023-05-07T00:06:08;2.73;;;2.47;;
8698;SDS011;4386;51.236;6.742;2023-05-07T00:07:11;3.43;;;2.43;;
8698;SDS011;4386;51.236;6.742;2023-05-07T00:08:15;2.90;;;2.70;;
8698;SDS011;4386;51.236;6.742;2023-05-07T00:09:17;2.33;;;1.93;;
8698;SDS011;4386;51.236;6.742;2023-05-07T00:10:21;2.60;;;2.40;;
8698;SDS011;4386;51.236;6.742;2023-05-07T00:11:33;3.10;;;2.73;;
8698;SDS011;4386;51.236;6.742;2023-05-07T00:12:38;4.53;;;2.57;;
8698;SDS011;4386;51.236;6.742;2023-05-07T00:13:41;4.03;;;2.97;;
8698;SDS011;4386;51.236;6.742;2023-05-07T00:14:44;3.17;;;2.67;;
8698;SDS011;4386;51.236;6.742;2023-05-07T00:15:47;4.00;;;2.73;;
8698;SDS011;4386;51.236;6.742;2023-05-07T00:16:50;3.00;;;2.70;;
8698;SDS011;4386;51.236;6.742;2023-05-07T00:17:53;4.27;;;3.10;;
8698;SDS011;4386;51.236;6.742;2023-05-07T00:18:57;3.43;;;2.43;;
8698;SDS011;4386;51.236;6.742;2023-05-07T00:19:59;3.43;;;2.70;;
8698;SDS011;4386;51.236;6.742;2023-05-07T00:21:03;3.13;;;2.60;;
8698;SDS011;4386;51.236;6.742;2023-05-07T00:22:07;3.40;;;3.10;;
8698;SDS011;4386;51.236;6.742;2023-05-07T00:23:12;4.10;;;2.90;;
8698;SDS011;4386;51.236;6.742;2023-05-07T00:24:14;2.80;;;2.60;;
8698;SDS011;4386;51.236;6.742;2023-05-07T00:25:18;3.33;;;2.93;;
8698;SDS011;4386;51.236;6.742;2023-05-07T00:26:21;4.73;;;3.27;;
8698;SDS011;4386;51.236;6.742;2023-05-07T00:27:25;3.50;;;3.20;;
8698;SDS011;4386;51.236;6.742;2023-05-07T00:28:27;6.00;;;3.20;;
8698;SDS011;4386;51.236;6.742;2023-05-07T00:29:30;3.30;;;2.90;;
8698;SDS011;4386;51.236;6.742;2023-05-07T00:30:33;4.07;;;3.33;;
8698;SDS011;4386;51.236;6.742;2023-05-07T00:31:37;5.17;;;3.37;;
8698;SDS011;4386;51.236;6.742;2023-05-07T00:32:39;4.53;;;3.20;;
8698;SDS011;4386;51.236;6.742;2023-05-07T00:33:42;5.50;;;3.20;;
8698;SDS011;4386;51.236;6.742;2023-05-07T00:34:45;3.60;;;3.30;;
8698;SDS011;4386;51.236;6.742;2023-05-07T00:35:48;4.60;;;3.27;;
8698;SDS011;4386;51.236;6.742;2023-05-07T00:36:51;6.60;;;3.40;;
8698;SDS011;4386;51.236;6.742;2023-05-07T00:37:56;3.83;;;2.90;;
8698;SDS011;4386;51.236;6.742;2023-05-07T00:38:59;5.40;;;3.90;;
8698;SDS011;4386;51.236;6.742;2023-05-07T00:40:05;3.20;;;2.90;;
8698;SDS011;4386;51.236;6.742;2023-05-07T00:41:09;5.83;;;3.20;;
8698;SDS011;4386;51.236;6.742;2023-05-07T00:42:12;4.30;;;3.00;;
8698;SDS011;4386;51.236;6.742;2023-05-07T00:43:16;3.57;;;3.03;;
8698;SDS011;4386;51.236;6.742;2023-05-07T00:44:20;4.37;;;3.10;;
8698;SDS011;4386;51.236;6.742;2023-05-07T00:45:22;3.43;;;3.13;;
8698;SDS011;4386;51.236;6.742;2023-05-07T00:46:28;3.00;;;2.80;;
8698;SDS011;4386;51.236;6.742;2023-05-07T00:47:33;3.37;;;3.07;;
8698;SDS011;4386;51.236;6.742;2023-05-07T00:48:36;3.23;;;2.93;;
8698;SDS011;4386;51.236;6.742;2023-05-07T00:49:39;3.37;;;2.77;;
8698;SDS011;4386;51.236;6.742;2023-05-07T00:50:45;3.23;;;2.93;;
8698;SDS011;4386;51.236;6.742;2023-05-07T00:51:48;3.43;;;2.90;;
8698;SDS011;4386;51.236;6.742;2023-05-07T00:52:53;3.57;;;2.50;;
8698;SDS011;4386;51.236;6.742;2023-05-07T00:53:59;3.10;;;2.80;;
8698;SDS011;4386;51.236;6.742;2023-05-07T00:55:04;4.03;;;2.77;;
8698;SDS011;4386;51.236;6.742;2023-05-07T00:56:09;5.80;;;2.80;;
8698;SDS011;4386;51.236;6.742;2023-05-07T00:57:12;3.73;;;2.60;;
8698;SDS011;4386;51.236;6.742;2023-05-07T00:58:17;2.80;;;2.60;;
8698;SDS011;4386;51.236;6.742;2023-05-07T00:59:19;5.23;;;3.00;;
8698;SDS011;4386;51.236;6.742;2023-05-07T01:00:23;4.30;;;3.30;;
8698;SDS011;4386;51.236;6.742;2023-05-07T01:01:29;3.00;;;2.70;;
8698;SDS011;4386;51.236;6.742;2023-05-07T01:02:32;3.53;;;2.63;;
8698;SDS011;4386;51.236;6.742;2023-05-07T01:03:35;10.10;;;3.10;;
8698;SDS011;4386;51.236;6.742;2023-05-07T01:04:39;2.97;;;2.73;;
8698;SDS011;4386;51.236;6.742;2023-05-07T01:05:42;2.77;;;2.53;;
8698;SDS011;4386;51.236;6.742;2023-05-07T01:06:48;6.30;;;3.00;;
8698;SDS011;4386;51.236;6.742;2023-05-07T01:07:52;3.10;;;2.80;;
8698;SDS011;4386;51.236;6.742;2023-05-07T01:08:59;3.10;;;2.80;;
8698;SDS011;4386;51.236;6.742;2023-05-07T01:10:02;4.33;;;3.23;;
8698;SDS011;4386;51.236;6.742;2023-05-07T01:11:07;5.03;;;3.40;;
8698;SDS011;4386;51.236;6.742;2023-05-07T01:12:11;3.50;;;3.30;;
8698;SDS011;4386;51.236;6.742;2023-05-07T01:13:15;3.20;;;2.90;;
8698;SDS011;4386;51.236;6.742;2023-05-07T01:14:18;5.97;;;3.17;;
8698;SDS011;4386;51.236;6.742;2023-05-07T01:15:23;5.20;;;3.27;;
8698;SDS011;4386;51.236;6.742;2023-05-07T01:16:25;3.27;;;2.97;;
8698;SDS011;4386;51.236;6.742;2023-05-07T01:17:29;3.40;;;2.83;;
8698;SDS011;4386;51.236;6.742;2023-05-07T01:18:35;3.00;;;2.80;;
8698;SDS011;4386;51.236;6.742;2023-05-07T01:19:38;3.40;;;3.10;;
8698;SDS011;4386;51.236;6.742;2023-05-07T01:20:41;3.60;;;3.23;;
8698;SDS011;4386;51.236;6.742;2023-05-07T01:21:46;3.43;;;3.10;;
8698;SDS011;4386;51.236;6.742;2023-05-07T01:22:51;4.90;;;2.97;;
8698;SDS011;4386;51.236;6.742;2023-05-07T01:23:55;3.37;;;2.87;;
8698;SDS011;4386;51.236;6.742;2023-05-07T01:24:59;5.40;;;3.43;;
8698;SDS011;4386;51.236;6.742;2023-05-07T01:26:03;4.70;;;3.30;;
8698;SDS011;4386;51.236;6.742;2023-05-07T01:27:06;6.00;;;3.20;;
8698;SDS011;4386;51.236;6.742;2023-05-07T01:28:10;4.00;;;3.30;;
8698;SDS011;4386;51.236;6.742;2023-05-07T01:29:12;4.90;;;3.67;;
8698;SDS011;4386;51.236;6.742;2023-05-07T01:30:16;5.13;;;3.73;;
8698;SDS011;4386;51.236;6.742;2023-05-07T01:31:20;4.53;;;4.13;;
8698;SDS011;4386;51.236;6.742;2023-05-07T01:32:27;5.20;;;3.20;;
8698;SDS011;4386;51.236;6.742;2023-05-07T01:33:34;3.70;;;3.40;;
8698;SDS011;4386;51.236;6.742;2023-05-07T01:34:41;4.23;;;3.57;;
8698;SDS011;4386;51.236;6.742;2023-05-07T01:35:45;3.77;;;3.47;;
8698;SDS011;4386;51.236;6.742;2023-05-07T01:36:50;6.77;;;4.67;;
8698;SDS011;4386;51.236;6.742;2023-05-07T01:37:55;4.67;;;3.93;;
8698;SDS011;4386;51.236;6.742;2023-05-07T01:38:59;3.87;;;3.50;;
8698;SDS011;4386;51.236;6.742;2023-05-07T01:40:04;4.30;;;3.90;;
8698;SDS011;4386;51.236;6.742;2023-05-07T01:41:09;3.50;;;3.20;;
8698;SDS011;4386;51.236;6.742;2023-05-07T01:42:13;3.60;;;3.30;;
8698;SDS011;4386;51.236;6.742;2023-05-07T01:43:16;3.80;;;3.40;;
8698;SDS011;4386;51.236;6.742;2023-05-07T01:44:19;4.20;;;3.40;;
8698;SDS011;4386;51.236;6.742;2023-05-07T01:45:23;5.70;;;4.63;;
8698;SDS011;4386;51.236;6.742;2023-05-07T01:46:27;7.07;;;3.60;;
8698;SDS011;4386;51.236;6.742;2023-05-07T01:47:31;4.13;;;3.73;;
8698;SDS011;4386;51.236;6.742;2023-05-07T01:48:35;6.80;;;3.90;;
8698;SDS011;4386;51.236;6.742;2023-05-07T01:49:40;4.10;;;3.50;;
8698;SDS011;4386;51.236;6.742;2023-05-07T01:50:43;3.60;;;3.27;;
8698;SDS011;4386;51.236;6.742;2023-05-07T01:51:47;6.17;;;3.90;;
8698;SDS011;4386;51.236;6.742;2023-05-07T01:52:50;7.50;;;3.97;;
8698;SDS011;4386;51.236;6.742;2023-05-07T01:53:55;3.63;;;3.27;;
8698;SDS011;4386;51.236;6.742;2023-05-07T01:54:58;4.40;;;3.30;;
8698;SDS011;4386;51.236;6.742;2023-05-07T01:56:01;4.73;;;3.53;;
8698;SDS011;4386;51.236;6.742;2023-05-07T01:57:04;4.47;;;4.03;;
8698;SDS011;4386;51.236;6.742;2023-05-07T01:58:07;4.47;;;3.33;;
8698;SDS011;4386;51.236;6.742;2023-05-07T01:59:10;4.57;;;3.50;;
8698;SDS011;4386;51.236;6.742;2023-05-07T02:00:15;4.50;;;3.57;;
8698;SDS011;4386;51.236;6.742;2023-05-07T02:01:19;4.80;;;3.50;;
8698;SDS011;4386;51.236;6.742;2023-05-07T02:02:23;5.17;;;3.50;;
8698;SDS011;4386;51.236;6.742;2023-05-07T02:03:27;3.57;;;3.33;;
8698;SDS011;4386;51.236;6.742;2023-05-07T02:04:29;4.10;;;3.40;;
8698;SDS011;4386;51.236;6.742;2023-05-07T02:05:33;4.90;;;3.47;;
8698;SDS011;4386;51.236;6.742;2023-05-07T02:06:36;5.83;;;3.17;;
8698;SDS011;4386;51.236;6.742;2023-05-07T02:07:39;7.50;;;3.43;;
8698;SDS011;4386;51.236;6.742;2023-05-07T02:08:42;4.20;;;3.80;;
8698;SDS011;4386;51.236;6.742;2023-05-07T02:14:05;5.87;;;3.20;;
8698;SDS011;4386;51.236;6.742;2023-05-07T02:15:26;3.73;;;3.13;;
8698;SDS011;4386;51.236;6.742;2023-05-07T02:16:45;4.30;;;3.60;;
8698;SDS011;4386;51.236;6.742;2023-05-07T02:18:07;3.77;;;3.10;;
8698;SDS011;4386;51.236;6.742;2023-05-07T02:19:28;7.83;;;3.20;;
8698;SDS011;4386;51.236;6.742;2023-05-07T02:20:49;3.40;;;3.10;;
8698;SDS011;4386;51.236;6.742;2023-05-07T02:22:09;5.93;;;4.03;;
8698;SDS011;4386;51.236;6.742;2023-05-07T02:23:30;5.30;;;3.50;;
8698;SDS011;4386;51.236;6.742;2023-05-07T02:24:50;3.70;;;3.20;;
8698;SDS011;4386;51.236;6.742;2023-05-07T02:26:11;4.60;;;3.60;;
8698;SDS011;4386;51.236;6.742;2023-05-07T02:27:31;3.77;;;3.40;;
8698;SDS011;4386;51.236;6.742;2023-05-07T02:28:52;4.80;;;3.53;;
8698;SDS011;4386;51.236;6.742;2023-05-07T02:30:14;4.40;;;3.10;;
8698;SDS011;4386;51.236;6.742;2023-05-07T02:31:35;3.97;;;3.63;;
8698;SDS011;4386;51.236;6.742;2023-05-07T02:32:56;4.43;;;3.50;;
8698;SDS011;4386;51.236;6.742;2023-05-07T02:34:16;6.60;;;3.00;;
8698;SDS011;4386;51.236;6.742;2023-05-07T02:35:37;4.63;;;3.50;;
8698;SDS011;4386;51.236;6.742;2023-05-07T02:36:57;4.47;;;3.90;;
8698;SDS011;4386;51.236;6.742;2023-05-07T02:38:18;6.07;;;3.80;;
8698;SDS011;4386;51.236;6.742;2023-05-07T02:39:38;7.17;;;3.40;;
8698;SDS011;4386;51.236;6.742;2023-05-07T02:40:59;3.33;;;3.03;;
8698;SDS011;4386;51.236;6.742;2023-05-07T02:42:19;11.57;;;3.50;;
8698;SDS011;4386;51.236;6.742;2023-05-07T02:43:39;3.90;;;3.50;;
8698;SDS011;4386;51.236;6.742;2023-05-07T02:45:01;3.80;;;3.33;;
8698;SDS011;4386;51.236;6.742;2023-05-07T02:46:22;3.60;;;3.27;;
8698;SDS011;4386;51.236;6.742;2023-05-07T02:47:43;5.60;;;3.43;;
8698;SDS011;4386;51.236;6.742;2023-05-07T02:49:02;3.63;;;3.10;;
8698;SDS011;4386;51.236;6.742;2023-05-07T02:50:24;5.50;;;3.57;;
8698;SDS011;4386;51.236;6.742;2023-05-07T02:51:44;5.93;;;3.43;;
8698;SDS011;4386;51.236;6.742;2023-05-07T02:53:05;5.10;;;3.97;;
8698;SDS011;4386;51.236;6.742;2023-05-07T02:54:25;3.63;;;3.20;;
8698;SDS011;4386;51.236;6.742;2023-05-07T02:55:46;7.63;;;3.03;;
8698;SDS011;4386;51.236;6.742;2023-05-07T02:57:07;5.93;;;3.40;;
8698;SDS011;4386;51.236;6.742;2023-05-07T02:58:27;3.60;;;3.30;;
8698;SDS011;4386;51.236;6.742;2023-05-07T02:59:48;6.20;;;3.23;;
8698;SDS011;4386;51.236;6.742;2023-05-07T03:01:14;3.93;;;2.97;;
8698;SDS011;4386;51.236;6.742;2023-05-07T03:02:41;4.00;;;3.13;;
8698;SDS011;4386;51.236;6.742;2023-05-07T03:04:06;4.73;;;3.33;;
8698;SDS011;4386;51.236;6.742;2023-05-07T03:05:34;3.50;;;3.20;;
8698;SDS011;4386;51.236;6.742;2023-05-07T03:06:58;4.70;;;3.03;;
8698;SDS011;4386;51.236;6.742;2023-05-07T03:08:21;5.60;;;3.97;;
8698;SDS011;4386;51.236;6.742;2023-05-07T03:09:41;5.90;;;3.60;;
8698;SDS011;4386;51.236;6.742;2023-05-07T03:11:02;4.43;;;3.17;;
8698;SDS011;4386;51.236;6.742;2023-05-07T03:12:22;5.90;;;3.70;;
8698;SDS011;4386;51.236;6.742;2023-05-07T03:13:43;3.80;;;3.43;;
8698;SDS011;4386;51.236;6.742;2023-05-07T03:15:03;4.47;;;3.07;;
8698;SDS011;4386;51.236;6.742;2023-05-07T03:16:24;3.37;;;3.07;;
8698;SDS011;4386;51.236;6.742;2023-05-07T03:17:46;3.50;;;3.10;;
8698;SDS011;4386;51.236;6.742;2023-05-07T03:19:06;3.47;;;2.77;;
8698;SDS011;4386;51.236;6.742;2023-05-07T03:20:26;3.27;;;2.70;;
8698;SDS011;4386;51.236;6.742;2023-05-07T03:21:47;6.70;;;3.60;;
8698;SDS011;4386;51.236;6.742;2023-05-07T03:23:07;3.17;;;2.87;;
8698;SDS011;4386;51.236;6.742;2023-05-07T03:24:28;5.50;;;4.10;;
8698;SDS011;4386;51.236;6.742;2023-05-07T03:25:48;3.70;;;3.40;;
8698;SDS011;4386;51.236;6.742;2023-05-07T03:27:09;5.67;;;3.30;;
8698;SDS011;4386;51.236;6.742;2023-05-07T03:28:29;5.33;;;3.00;;
8698;SDS011;4386;51.236;6.742;2023-05-07T03:29:50;7.40;;;3.60;;
8698;SDS011;4386;51.236;6.742;2023-05-07T03:31:10;4.70;;;3.53;;
8698;SDS011;4386;51.236;6.742;2023-05-07T03:32:30;6.37;;;3.97;;
8698;SDS011;4386;51.236;6.742;2023-05-07T03:33:52;7.50;;;3.50;;
8698;SDS011;4386;51.236;6.742;2023-05-07T03:35:13;5.23;;;4.00;;
8698;SDS011;4386;51.236;6.742;2023-05-07T03:36:34;4.43;;;2.90;;
8698;SDS011;4386;51.236;6.742;2023-05-07T03:37:55;3.90;;;3.10;;
8698;SDS011;4386;51.236;6.742;2023-05-07T03:39:16;4.03;;;3.63;;
8698;SDS011;4386;51.236;6.742;2023-05-07T03:40:36;7.07;;;3.60;;
8698;SDS011;4386;51.236;6.742;2023-05-07T03:41:57;5.27;;;3.30;;
8698;SDS011;4386;51.236;6.742;2023-05-07T03:43:18;3.90;;;3.60;;
8698;SDS011;4386;51.236;6.742;2023-05-07T03:44:39;4.13;;;3.20;;
8698;SDS011;4386;51.236;6.742;2023-05-07T03:45:59;7.20;;;4.03;;
8698;SDS011;4386;51.236;6.742;2023-05-07T03:47:20;4.13;;;3.73;;
8698;SDS011;4386;51.236;6.742;2023-05-07T03:48:40;4.80;;;4.03;;
8698;SDS011;4386;51.236;6.742;2023-05-07T03:50:02;5.00;;;3.60;;
8698;SDS011;4386;51.236;6.742;2023-05-07T03:51:22;3.50;;;3.00;;
8698;SDS011;4386;51.236;6.742;2023-05-07T03:52:42;5.00;;;3.97;;
8698;SDS011;4386;51.236;6.742;2023-05-07T03:54:03;6.00;;;3.77;;
8698;SDS011;4386;51.236;6.742;2023-05-07T03:55:23;4.10;;;3.70;;
8698;SDS011;4386;51.236;6.742;2023-05-07T03:56:45;11.03;;;4.27;;
8698;SDS011;4386;51.236;6.742;2023-05-07T03:58:05;3.50;;;3.20;;
8698;SDS011;4386;51.236;6.742;2023-05-07T03:59:26;3.20;;;2.90;;
8698;SDS011;4386;51.236;6.742;2023-05-07T04:00:46;4.00;;;3.60;;
8698;SDS011;4386;51.236;6.742;2023-05-07T04:02:07;4.00;;;3.30;;
8698;SDS011;4386;51.236;6.742;2023-05-07T04:03:27;5.07;;;3.40;;
8698;SDS011;4386;51.236;6.742;2023-05-07T04:04:48;3.60;;;3.30;;
8698;SDS011;4386;51.236;6.742;2023-05-07T04:06:10;6.53;;;2.90;;
8698;SDS011;4386;51.236;6.742;2023-05-07T04:07:31;7.60;;;3.73;;
8698;SDS011;4386;51.236;6.742;2023-05-07T04:08:52;4.93;;;3.45;;
8698;SDS011;4386;51.236;6.742;2023-05-07T04:10:12;6.17;;;3.40;;
8698;SDS011;4386;51.236;6.742;2023-05-07T04:11:33;5.37;;;3.23;;
8698;SDS011;4386;51.236;6.742;2023-05-07T04:12:53;4.53;;;3.17;;
8698;SDS011;4386;51.236;6.742;2023-05-07T04:14:16;4.27;;;3.73;;
8698;SDS011;4386;51.236;6.742;2023-05-07T04:15:36;6.23;;;3.27;;
8698;SDS011;4386;51.236;6.742;2023-05-07T04:16:57;4.27;;;3.43;;
8698;SDS011;4386;51.236;6.742;2023-05-07T04:18:18;3.80;;;3.50;;
8698;SDS011;4386;51.236;6.742;2023-05-07T04:19:39;3.97;;;3.57;;
8698;SDS011;4386;51.236;6.742;2023-05-07T04:21:04;3.30;;;3.00;;
8698;SDS011;4386;51.236;6.742;2023-05-07T04:22:26;4.80;;;3.63;;
8698;SDS011;4386;51.236;6.742;2023-05-07T04:23:46;3.83;;;3.50;;
8698;SDS011;4386;51.236;6.742;2023-05-07T04:25:08;4.10;;;3.70;;
8698;SDS011;4386;51.236;6.742;2023-05-07T04:26:29;3.50;;;3.20;;
8698;SDS011;4386;51.236;6.742;2023-05-07T04:27:50;4.13;;;3.77;;
8698;SDS011;4386;51.236;6.742;2023-05-07T04:29:09;4.70;;;3.43;;
8698;SDS011;4386;51.236;6.742;2023-05-07T04:30:31;4.13;;;3.40;;
8698;SDS011;4386;51.236;6.742;2023-05-07T04:31:51;3.60;;;3.30;;
8698;SDS011;4386;51.236;6.742;2023-05-07T04:33:13;6.60;;;4.37;;
8698;SDS011;4386;51.236;6.742;2023-05-07T04:34:34;3.03;;;2.47;;
8698;SDS011;4386;51.236;6.742;2023-05-07T04:35:55;3.10;;;2.90;;
8698;SDS011;4386;51.236;6.742;2023-05-07T04:37:14;4.77;;;3.30;;
8698;SDS011;4386;51.236;6.742;2023-05-07T04:38:36;6.53;;;3.50;;
8698;SDS011;4386;51.236;6.742;2023-05-07T04:39:57;4.13;;;3.23;;
8698;SDS011;4386;51.236;6.742;2023-05-07T04:41:17;4.60;;;3.33;;
8698;SDS011;4386;51.236;6.742;2023-05-07T04:42:38;3.37;;;3.07;;
8698;SDS011;4386;51.236;6.742;2023-05-07T04:43:58;5.70;;;3.37;;
8698;SDS011;4386;51.236;6.742;2023-05-07T04:45:19;3.37;;;2.60;;
8698;SDS011;4386;51.236;6.742;2023-05-07T04:46:39;3.35;;;3.03;;
8698;SDS011;4386;51.236;6.742;2023-05-07T04:48:00;5.40;;;2.90;;
8698;SDS011;4386;51.236;6.742;2023-05-07T04:49:19;3.70;;;3.30;;
8698;SDS011;4386;51.236;6.742;2023-05-07T04:50:40;4.90;;;3.30;;
8698;SDS011;4386;51.236;6.742;2023-05-07T04:52:00;3.20;;;2.90;;
8698;SDS011;4386;51.236;6.742;2023-05-07T04:53:34;4.57;;;2.70;;
8698;SDS011;4386;51.236;6.742;2023-05-07T04:54:56;5.30;;;3.17;;
8698;SDS011;4386;51.236;6.742;2023-05-07T04:56:19;4.27;;;3.10;;
8698;SDS011;4386;51.236;6.742;2023-05-07T04:57:39;4.10;;;3.50;;
8698;SDS011;4386;51.236;6.742;2023-05-07T04:59:01;3.80;;;3.50;;
8698;SDS011;4386;51.236;6.742;2023-05-07T05:00:22;3.87;;;3.20;;
8698;SDS011;4386;51.236;6.742;2023-05-07T05:01:43;6.00;;;2.80;;
8698;SDS011;4386;51.236;6.742;2023-05-07T05:03:04;5.30;;;3.17;;
8698;SDS011;4386;51.236;6.742;2023-05-07T05:04:23;3.57;;;3.13;;
8698;SDS011;4386;51.236;6.742;2023-05-07T05:06:02;3.70;;;3.00;;
8698;SDS011;4386;51.236;6.742;2023-05-07T05:07:41;5.87;;;2.63;;
8698;SDS011;4386;51.236;6.742;2023-05-07T05:09:19;7.30;;;3.90;;
8698;SDS011;4386;51.236;6.742;2023-05-07T05:10:59;4.07;;;2.97;;
8698;SDS011;4386;51.236;6.742;2023-05-07T05:12:38;4.23;;;3.20;;
8698;SDS011;4386;51.236;6.742;2023-05-07T05:14:17;2.70;;;2.50;;
8698;SDS011;4386;51.236;6.742;2023-05-07T05:15:55;4.83;;;3.13;;
8698;SDS011;4386;51.236;6.742;2023-05-07T05:17:34;3.43;;;3.17;;
8698;SDS011;4386;51.236;6.742;2023-05-07T05:19:12;2.70;;;2.50;;
8698;SDS011;4386;51.236;6.742;2023-05-07T05:20:51;4.10;;;2.93;;
8698;SDS011;4386;51.236;6.742;2023-05-07T05:22:29;3.93;;;3.17;;
8698;SDS011;4386;51.236;6.742;2023-05-07T05:24:08;3.20;;;2.90;;
8698;SDS011;4386;51.236;6.742;2023-05-07T05:25:47;3.57;;;2.80;;
8698;SDS011;4386;51.236;6.742;2023-05-07T05:27:26;2.77;;;2.57;;
8698;SDS011;4386;51.236;6.742;2023-05-07T05:29:05;4.17;;;3.17;;
8698;SDS011;4386;51.236;6.742;2023-05-07T05:30:43;4.77;;;2.77;;
8698;SDS011;4386;51.236;6.742;2023-05-07T05:32:21;2.90;;;2.60;;
8698;SDS011;4386;51.236;6.742;2023-05-07T05:34:00;2.77;;;2.50;;
8698;SDS011;4386;51.236;6.742;2023-05-07T05:35:39;3.13;;;2.80;;
8698;SDS011;4386;51.236;6.742;2023-05-07T05:37:17;3.30;;;2.73;;
8698;SDS011;4386;51.236;6.742;2023-05-07T05:38:56;6.03;;;2.80;;
8698;SDS011;4386;51.236;6.742;2023-05-07T05:40:34;2.93;;;2.63;;
8698;SDS011;4386;51.236;6.742;2023-05-07T05:42:13;3.40;;;2.63;;
8698;SDS011;4386;51.236;6.742;2023-05-07T05:43:53;2.70;;;2.50;;
8698;SDS011;4386;51.236;6.742;2023-05-07T05:45:31;3.10;;;2.47;;
8698;SDS011;4386;51.236;6.742;2023-05-07T05:47:10;4.90;;;2.73;;
8698;SDS011;4386;51.236;6.742;2023-05-07T05:48:48;2.87;;;2.63;;
8698;SDS011;4386;51.236;6.742;2023-05-07T05:50:27;5.83;;;2.83;;
8698;SDS011;4386;51.236;6.742;2023-05-07T05:52:05;4.43;;;2.83;;
8698;SDS011;4386;51.236;6.742;2023-05-07T05:53:44;3.30;;;2.60;;
8698;SDS011;4386;51.236;6.742;2023-05-07T05:55:22;2.60;;;2.40;;
8698;SDS011;4386;51.236;6.742;2023-05-07T05:57:01;4.47;;;2.63;;
8698;SDS011;4386;51.236;6.742;2023-05-07T05:58:40;3.10;;;2.57;;
8698;SDS011;4386;51.236;6.742;2023-05-07T06:00:20;3.40;;;2.67;;
8698;SDS011;4386;51.236;6.742;2023-05-07T06:02:00;2.60;;;2.40;;
8698;SDS011;4386;51.236;6.742;2023-05-07T06:03:39;2.50;;;2.10;;
8698;SDS011;4386;51.236;6.742;2023-05-07T06:05:17;4.60;;;3.00;;
8698;SDS011;4386;51.236;6.742;2023-05-07T06:06:56;3.30;;;2.60;;
8698;SDS011;4386;51.236;6.742;2023-05-07T06:08:34;3.20;;;2.87;;
8698;SDS011;4386;51.236;6.742;2023-05-07T06:10:12;3.47;;;2.60;;
8698;SDS011;4386;51.236;6.742;2023-05-07T06:11:51;2.60;;;2.40;;
8698;SDS011;4386;51.236;6.742;2023-05-07T06:13:30;3.20;;;2.50;;
8698;SDS011;4386;51.236;6.742;2023-05-07T06:15:08;3.43;;;3.13;;
8698;SDS011;4386;51.236;6.742;2023-05-07T06:16:49;4.10;;;2.83;;
8698;SDS011;4386;51.236;6.742;2023-05-07T06:18:28;4.90;;;2.60;;
8698;SDS011;4386;51.236;6.742;2023-05-07T06:20:06;3.33;;;2.40;;
8698;SDS011;4386;51.236;6.742;2023-05-07T06:21:45;2.80;;;2.60;;
8698;SDS011;4386;51.236;6.742;2023-05-07T06:23:24;2.50;;;2.20;;
8698;SDS011;4386;51.236;6.742;2023-05-07T06:25:02;4.13;;;3.23;;
8698;SDS011;4386;51.236;6.742;2023-05-07T06:26:41;2.87;;;2.67;;
8698;SDS011;4386;51.236;6.742;2023-05-07T06:28:19;3.37;;;3.07;;
8698;SDS011;4386;51.236;6.742;2023-05-07T06:29:58;2.70;;;2.50;;
8698;SDS011;4386;51.236;6.742;2023-05-07T06:31:36;4.33;;;2.80;;
8698;SDS011;4386;51.236;6.742;2023-05-07T07:23:49;2.40;;;2.20;;
8698;SDS011;4386;51.236;6.742;2023-05-07T07:24:53;2.63;;;2.50;;
8698;SDS011;4386;51.236;6.742;2023-05-07T07:25:55;3.17;;;2.90;;
8698;SDS011;4386;51.236;6.742;2023-05-07T07:26:59;4.60;;;2.73;;
8698;SDS011;4386;51.236;6.742;2023-05-07T07:28:02;2.33;;;2.13;;
8698;SDS011;4386;51.236;6.742;2023-05-07T07:29:06;3.13;;;2.47;;
8698;SDS011;4386;51.236;6.742;2023-05-07T07:30:08;2.80;;;2.40;;
8698;SDS011;4386;51.236;6.742;2023-05-07T07:31:12;2.70;;;2.50;;
8698;SDS011;4386;51.236;6.742;2023-05-07T07:32:15;3.10;;;2.83;;
8698;SDS011;4386;51.236;6.742;2023-05-07T07:33:18;2.43;;;2.23;;
8698;SDS011;4386;51.236;6.742;2023-05-07T07:34:21;3.10;;;2.57;;
8698;SDS011;4386;51.236;6.742;2023-05-07T07:35:25;5.93;;;3.20;;
8698;SDS011;4386;51.236;6.742;2023-05-07T07:36:27;2.47;;;2.27;;
8698;SDS011;4386;51.236;6.742;2023-05-07T07:37:46;2.37;;;2.27;;
8698;SDS011;4386;51.236;6.742;2023-05-07T07:38:53;2.70;;;2.40;;
8698;SDS011;4386;51.236;6.742;2023-05-07T07:39:56;2.70;;;2.50;;
8698;SDS011;4386;51.236;6.742;2023-05-07T07:40:59;2.63;;;2.43;;
8698;SDS011;4386;51.236;6.742;2023-05-07T07:42:02;2.40;;;2.30;;
8698;SDS011;4386;51.236;6.742;2023-05-07T07:43:05;2.80;;;2.17;;
8698;SDS011;4386;51.236;6.742;2023-05-07T07:44:08;5.33;;;2.57;;
8698;SDS011;4386;51.236;6.742;2023-05-07T07:45:17;2.60;;;2.40;;
8698;SDS011;4386;51.236;6.742;2023-05-07T07:46:20;4.60;;;2.80;;
8698;SDS011;4386;51.236;6.742;2023-05-07T07:47:23;2.83;;;2.43;;
8698;SDS011;4386;51.236;6.742;2023-05-07T07:48:26;4.03;;;3.63;;
8698;SDS011;4386;51.236;6.742;2023-05-07T07:49:29;3.30;;;2.90;;
8698;SDS011;4386;51.236;6.742;2023-05-07T07:50:32;2.80;;;2.60;;
8698;SDS011;4386;51.236;6.742;2023-05-07T07:51:46;3.40;;;2.20;;
8698;SDS011;4386;51.236;6.742;2023-05-07T07:52:49;2.70;;;2.50;;
8698;SDS011;4386;51.236;6.742;2023-05-07T07:53:54;5.13;;;2.33;;
8698;SDS011;4386;51.236;6.742;2023-05-07T07:55:00;3.37;;;2.10;;
8698;SDS011;4386;51.236;6.742;2023-05-07T07:56:02;5.40;;;2.37;;
8698;SDS011;4386;51.236;6.742;2023-05-07T07:57:06;2.23;;;2.03;;
8698;SDS011;4386;51.236;6.742;2023-05-07T07:58:09;2.93;;;2.17;;
8698;SDS011;4386;51.236;6.742;2023-05-07T07:59:12;4.20;;;2.47;;
8698;SDS011;4386;51.236;6.742;2023-05-07T08:00:19;3.00;;;2.53;;
8698;SDS011;4386;51.236;6.742;2023-05-07T08:01:33;1.93;;;1.80;;
8698;SDS011;4386;51.236;6.742;2023-05-07T08:02:37;2.80;;;2.50;;
8698;SDS011;4386;51.236;6.742;2023-05-07T08:03:39;2.27;;;2.07;;
8698;SDS011;4386;51.236;6.742;2023-05-07T08:04:43;2.30;;;2.10;;
8698;SDS011;4386;51.236;6.742;2023-05-07T08:05:46;2.57;;;2.17;;
8698;SDS011;4386;51.236;6.742;2023-05-07T08:06:51;2.70;;;2.50;;
8698;SDS011;4386;51.236;6.742;2023-05-07T08:07:56;2.37;;;2.27;;
8698;SDS011;4386;51.236;6.742;2023-05-07T08:09:01;3.17;;;1.80;;
8698;SDS011;4386;51.236;6.742;2023-05-07T08:10:05;2.37;;;1.90;;
8698;SDS011;4386;51.236;6.742;2023-05-07T08:11:08;2.60;;;2.40;;
8698;SDS011;4386;51.236;6.742;2023-05-07T08:12:12;2.60;;;2.50;;
8698;SDS011;4386;51.236;6.742;2023-05-07T08:13:15;2.40;;;2.23;;
8698;SDS011;4386;51.236;6.742;2023-05-07T08:14:18;2.30;;;2.10;;
8698;SDS011;4386;51.236;6.742;2023-05-07T08:15:21;2.30;;;2.10;;
8698;SDS011;4386;51.236;6.742;2023-05-07T08:16:25;2.03;;;1.93;;
8698;SDS011;4386;51.236;6.742;2023-05-07T08:17:27;2.90;;;1.90;;
8698;SDS011;4386;51.236;6.742;2023-05-07T08:18:31;2.27;;;2.07;;
8698;SDS011;4386;51.236;6.742;2023-05-07T08:19:33;2.73;;;2.17;;
8698;SDS011;4386;51.236;6.742;2023-05-07T08:20:37;3.53;;;1.80;;
8698;SDS011;4386;51.236;6.742;2023-05-07T08:21:41;2.80;;;1.77;;
8698;SDS011;4386;51.236;6.742;2023-05-07T08:22:45;2.20;;;1.80;;
8698;SDS011;4386;51.236;6.742;2023-05-07T08:23:47;1.93;;;1.60;;
8698;SDS011;4386;51.236;6.742;2023-05-07T08:24:52;2.93;;;2.50;;
8698;SDS011;4386;51.236;6.742;2023-05-07T08:25:55;3.30;;;2.43;;
8698;SDS011;4386;51.236;6.742;2023-05-07T08:26:59;2.20;;;2.00;;
8698;SDS011;4386;51.236;6.742;2023-05-07T08:28:01;2.17;;;2.07;;
8698;SDS011;4386;51.236;6.742;2023-05-07T08:29:06;1.87;;;1.73;;
8698;SDS011;4386;51.236;6.742;2023-05-07T08:30:09;2.00;;;1.90;;
8698;SDS011;4386;51.236;6.742;2023-05-07T08:31:14;5.07;;;1.77;;
8698;SDS011;4386;51.236;6.742;2023-05-07T08:32:17;4.87;;;1.60;;
8698;SDS011;4386;51.236;6.742;2023-05-07T08:33:20;3.03;;;1.50;;
8698;SDS011;4386;51.236;6.742;2023-05-07T08:34:25;1.97;;;1.87;;
8698;SDS011;4386;51.236;6.742;2023-05-07T08:35:28;2.37;;;1.93;;
8698;SDS011;4386;51.236;6.742;2023-05-07T08:36:32;2.27;;;1.93;;
8698;SDS011;4386;51.236;6.742;2023-05-07T08:37:36;1.70;;;1.60;;
8698;SDS011;4386;51.236;6.742;2023-05-07T08:38:43;4.40;;;1.80;;
8698;SDS011;4386;51.236;6.742;2023-05-07T08:39:47;2.90;;;1.73;;